Time;durP1;ratioP1;P1;durP2;ratioP2;P2;SDS_P1;SDS_P2;PMS_P1;PMS_P2;Temp;Humidity;BMP_temperature;BMP_pressure;BME280_temperature;BME280_humidity;BME280_pressure;Samples;Min_cycle;Max_cycle;Signal;HPM_P1;HPM_P2
2022/02/04 00:24:08;;;;;;;;;;;0.70;77.90;;;;;;5025011;28;92195;-43
2022/02/04 00:26:39;;;;;;;;;;;0.80;78.00;;;;;;5021300;28;94516;-43
2022/02/04 00:34:04;;;;;;;;;;;0.70;77.80;;;;;;5021236;28;92987;-43
2022/02/04 00:37:01;;;;;;;;;;;0.70;77.70;;;;;;5022343;28;91412;-43
2022/02/04 00:39:35;;;;;;;;;;;0.80;77.70;;;;;;5021234;28;92902;-44
2022/02/04 00:42:06;;;;;;;;;;;0.70;77.50;;;;;;5020611;28;94510;-43
2022/02/04 00:44:32;;;;;;;;;;;0.70;77.60;;;;;;5021256;28;92937;-43
2022/02/04 00:49:50;;;;;;;;;;;0.70;77.50;;;;;;5021786;28;92209;-43
2022/02/04 00:52:40;;;;;;;;;;;0.70;77.60;;;;;;5021350;28;94115;-43
2022/02/04 00:57:53;;;;;;;;;;;0.70;77.30;;;;;;5019786;28;91920;-43
2022/02/04 01:13:15;;;;;;;;;;;0.60;77.50;;;;;;5022841;28;93354;-43
2022/02/04 01:27:56;;;;;;;;;;;0.50;77.30;;;;;;5020637;28;92559;-43
2022/02/04 01:30:27;;;;;;;;;;;0.50;77.10;;;;;;5021503;28;93495;-43
2022/02/04 01:32:53;;;;;;;;;;;0.50;77.20;;;;;;5020285;28;94448;-43
2022/02/04 01:35:19;;;;;;;;;;;0.50;77.10;;;;;;5024062;28;92198;-43
2022/02/04 01:37:44;;;;;;;;;;;0.50;77.10;;;;;;5019420;28;95659;-42
2022/02/04 01:40:10;;;;;;;;;;;0.50;77.10;;;;;;5020771;28;91926;-43
2022/02/04 01:42:35;;;;;;;;;;;0.50;77.10;;;;;;5020211;28;93343;-43
2022/02/04 01:45:01;;;;;;;;;;;0.50;77.60;;;;;;5020060;28;94375;-43
2022/02/04 01:47:27;;;;;;;;;;;0.40;77.00;;;;;;5020713;28;91872;-43
2022/02/04 01:49:52;;;;;;;;;;;0.40;77.10;;;;;;5020909;28;93959;-43
2022/02/04 01:52:19;;;;;;;;;;;0.40;77.10;;;;;;5019261;28;94128;-43
2022/02/04 01:54:44;;;;;;;;;;;0.40;77.10;;;;;;5021134;28;91355;-43
2022/02/04 01:57:10;;;;;;;;;;;0.40;77.10;;;;;;5023085;28;93292;-42
2022/02/04 01:59:35;;;;;;;;;;;0.40;77.10;;;;;;5020633;28;92182;-43
2022/02/04 02:02:01;;;;;;;;;;;0.40;77.00;;;;;;5019775;28;93980;-43
2022/02/04 02:04:27;;;;;;;;;;;0.40;77.00;;;;;;5019951;28;94542;-43
2022/02/04 02:06:59;;;;;;;;;;;0.30;77.00;;;;;;5020268;28;92141;-42
2022/02/04 02:09:31;;;;;;;;;;;0.30;77.00;;;;;;5020371;28;94336;-42
2022/02/04 02:12:01;;;;;;;;;;;0.30;76.90;;;;;;5019638;28;94147;-43
2022/02/04 02:14:29;;;;;;;;;;;0.30;77.00;;;;;;5020034;28;92187;-42
2022/02/04 02:46:38;;;;;;;;;;;0.20;76.60;;;;;;5020248;28;91639;-42
2022/02/04 02:59:45;;;;;;;;;;;0.10;76.50;;;;;;5019378;28;92192;-42
2022/02/04 03:02:11;;;;;;;;;;;0.10;76.60;;;;;;5018871;28;94681;-42
2022/02/04 03:04:37;;;;;;;;;;;0.10;76.60;;;;;;5025471;28;92189;-42
2022/02/04 03:07:02;;;;;;;;;;;0.10;76.40;;;;;;5022618;28;94248;-42
2022/02/04 03:09:28;;;;;;;;;;;0.10;76.60;;;;;;5022922;28;92181;-42
2022/02/04 03:11:53;;;;;;;;;;;0.10;76.30;;;;;;5023402;28;94181;-43
2022/02/04 03:14:19;;;;;;;;;;;0.00;76.40;;;;;;5022386;28;93588;-43
2022/02/04 03:16:45;;;;;;;;;;;0.00;76.40;;;;;;5022762;28;92207;-43
2022/02/04 03:19:11;;;;;;;;;;;0.00;76.50;;;;;;5022328;28;93931;-42
2022/02/04 03:21:42;;;;;;;;;;;0.00;76.50;;;;;;5022223;28;94641;-42
2022/02/04 03:24:12;;;;;;;;;;;0.00;76.60;;;;;;5023141;28;91882;-43
2022/02/04 03:26:55;;;;;;;;;;;0.00;76.60;;;;;;5025395;28;93745;-42
2022/02/04 03:29:31;;;;;;;;;;;0.00;76.60;;;;;;5022560;28;92034;-42
2022/02/04 03:32:03;;;;;;;;;;;0.00;76.40;;;;;;5022895;28;93916;-43
2022/02/04 03:34:29;;;;;;;;;;;0.00;76.40;;;;;;5022373;28;93791;-42
2022/02/04 03:36:54;;;;;;;;;;;-0.10;76.30;;;;;;5023346;28;91438;-43
2022/02/04 03:39:20;;;;;;;;;;;-0.10;76.20;;;;;;5022744;28;92312;-43
2022/02/04 03:41:46;;;;;;;;;;;0.00;76.30;;;;;;5021346;28;94955;-42
2022/02/04 03:44:11;;;;;;;;;;;-0.10;76.30;;;;;;5021823;28;93085;-43
2022/02/04 03:46:37;;;;;;;;;;;-0.10;76.40;;;;;;5022533;28;95107;-42
2022/02/04 03:49:02;;;;;;;;;;;-0.10;76.30;;;;;;5025081;28;94488;-43
2022/02/04 03:51:28;;;;;;;;;;;-0.10;76.40;;;;;;5022797;28;92307;-42
2022/02/04 03:53:53;;;;;;;;;;;-0.10;76.20;;;;;;5022109;28;93108;-43
2022/02/04 03:56:19;;;;;;;;;;;-0.20;76.20;;;;;;5022325;28;92125;-42
2022/02/04 03:58:45;;;;;;;;;;;-0.10;76.20;;;;;;5022468;28;92674;-42
2022/02/04 04:01:11;;;;;;;;;;;-0.20;76.20;;;;;;5022136;28;93579;-43
2022/02/04 04:03:37;;;;;;;;;;;-0.20;76.10;;;;;;5022203;28;92173;-43
2022/02/04 04:06:02;;;;;;;;;;;-0.20;76.30;;;;;;5022255;28;92783;-42
2022/02/04 04:08:28;;;;;;;;;;;-0.20;76.80;;;;;;5021090;28;95418;-42
2022/02/04 04:10:53;;;;;;;;;;;-0.20;76.20;;;;;;5024983;28;92037;-42
2022/02/04 04:13:19;;;;;;;;;;;-0.20;76.10;;;;;;5021359;28;95117;-43
2022/02/04 04:15:45;;;;;;;;;;;-0.20;76.20;;;;;;5021482;28;92120;-43
2022/02/04 04:18:14;;;;;;;;;;;-0.20;76.20;;;;;;5022280;28;92258;-43
2022/02/04 04:20:40;;;;;;;;;;;-0.30;76.00;;;;;;5021375;28;94323;-42
2022/02/04 04:23:06;;;;;;;;;;;-0.30;76.10;;;;;;5021873;28;92280;-42
2022/02/04 04:25:31;;;;;;;;;;;-0.30;76.10;;;;;;5022303;28;94009;-43
2022/02/04 04:27:57;;;;;;;;;;;-0.30;76.20;;;;;;5021162;28;94698;-42
2022/02/04 04:30:23;;;;;;;;;;;-0.30;76.10;;;;;;5024849;28;92150;-43
2022/02/04 04:32:50;;;;;;;;;;;-0.30;76.00;;;;;;5020458;28;95160;-43
2022/02/04 04:35:17;;;;;;;;;;;-0.30;76.00;;;;;;5021738;28;92122;-42
2022/02/04 04:37:48;;;;;;;;;;;-0.30;76.00;;;;;;5021815;28;93863;-43
2022/02/04 05:26:40;;;;;;;;;;;-0.60;76.00;;;;;;5019519;28;92867;-43
2022/02/04 05:29:12;;;;;;;;;;;-0.60;75.90;;;;;;5020960;28;94730;-43
2022/02/04 05:31:38;;;;;;;;;;;-0.60;76.00;;;;;;5020594;28;93532;-43
2022/02/04 05:34:03;;;;;;;;;;;-0.60;75.90;;;;;;5020624;28;92311;-42
2022/02/04 05:36:30;;;;;;;;;;;-0.60;76.00;;;;;;5020640;28;94297;-43
2022/02/04 05:38:55;;;;;;;;;;;-0.70;75.90;;;;;;5020020;28;94756;-43
2022/02/04 05:41:28;;;;;;;;;;;-0.60;76.00;;;;;;5023478;28;92208;-43
2022/02/04 05:43:56;;;;;;;;;;;-0.60;75.90;;;;;;5020761;28;93911;-43
2022/02/04 05:46:28;;;;;;;;;;;-0.60;75.90;;;;;;5020617;28;92139;-43
2022/02/04 05:48:55;;;;;;;;;;;-0.60;76.10;;;;;;5020847;28;93700;-43
2022/02/04 05:59:44;;;;;;;;;;;-0.70;76.00;;;;;;5019458;28;92995;-43
2022/02/04 06:02:24;;;;;;;;;;;-0.70;75.90;;;;;;5020570;28;91976;-43
2022/02/04 06:23:05;;;;;;;;;;;-0.70;75.80;;;;;;5017782;28;91953;-43
2022/02/04 06:25:31;;;;;;;;;;;-0.80;75.70;;;;;;5022758;28;93925;-43
2022/02/04 06:27:57;;;;;;;;;;;-0.80;75.80;;;;;;5020248;28;92143;-43
2022/02/04 06:30:22;;;;;;;;;;;-0.80;75.70;;;;;;5020107;28;94292;-43
2022/02/04 06:32:48;;;;;;;;;;;-0.80;75.70;;;;;;5019398;28;94946;-43
2022/02/04 06:35:13;;;;;;;;;;;-0.80;75.60;;;;;;5020632;28;91330;-43
2022/02/04 06:37:39;;;;;;;;;;;-0.80;75.60;;;;;;5019913;28;91983;-43
2022/02/04 06:40:05;;;;;;;;;;;-0.80;75.60;;;;;;5019625;28;93075;-43
2022/02/04 06:42:30;;;;;;;;;;;-0.80;75.60;;;;;;5018976;28;93247;-43
2022/02/04 06:44:57;;;;;;;;;;;-0.80;75.50;;;;;;5019900;28;94759;-43
2022/02/04 06:47:23;;;;;;;;;;;-0.80;75.60;;;;;;5022433;28;94816;-43
2022/02/04 06:49:49;;;;;;;;;;;-0.90;75.60;;;;;;5019858;28;93546;-43
2022/02/04 06:52:15;;;;;;;;;;;-0.90;75.70;;;;;;5019095;28;94233;-43
2022/02/04 06:54:40;;;;;;;;;;;-0.90;75.70;;;;;;5019516;28;91995;-43
2022/02/04 06:57:06;;;;;;;;;;;-0.90;75.80;;;;;;5019815;28;92885;-43
2022/02/04 06:59:33;;;;;;;;;;;-0.90;75.80;;;;;;5019814;28;91495;-43
2022/02/04 07:01:59;;;;;;;;;;;-0.90;75.60;;;;;;5019547;28;91988;-43
2022/02/04 07:04:28;;;;;;;;;;;-0.90;75.80;;;;;;5019695;28;94440;-43
2022/02/04 07:06:56;;;;;;;;;;;-0.90;75.70;;;;;;5018143;28;95792;-43
2022/02/04 07:09:43;;;;;;;;;;;-0.90;75.70;;;;;;5022654;28;92101;-44
2022/02/04 07:17:29;;;;;;;;;;;-0.90;75.50;;;;;;5019558;28;92309;-45
2022/02/04 07:19:56;;;;;;;;;;;-0.90;75.70;;;;;;5019080;28;94598;-44
2022/02/04 07:22:21;;;;;;;;;;;-0.90;75.70;;;;;;5019410;28;92063;-46
2022/02/04 07:24:51;;;;;;;;;;;-0.90;75.50;;;;;;5020014;28;92704;-45
2022/02/04 07:27:17;;;;;;;;;;;-1.00;75.50;;;;;;5018693;28;94065;-44
2022/02/04 07:29:45;;;;;;;;;;;-1.00;75.50;;;;;;5019096;28;92154;-47
2022/02/04 07:32:17;;;;;;;;;;;-0.90;75.50;;;;;;5021125;28;93932;-44
2022/02/04 07:42:50;;;;;;;;;;;-1.00;75.60;;;;;;5019236;28;91905;-43
2022/02/04 07:45:16;;;;;;;;;;;-1.00;75.50;;;;;;5018013;28;95863;-43
2022/02/04 07:47:41;;;;;;;;;;;-0.90;75.50;;;;;;5018516;28;94294;-43
2022/02/04 07:50:07;;;;;;;;;;;-1.00;75.70;;;;;;5021491;28;91407;-44
2022/02/04 07:52:33;;;;;;;;;;;-1.00;75.70;;;;;;5022407;28;93107;-44
2022/02/04 07:54:59;;;;;;;;;;;-1.10;75.90;;;;;;5024974;28;93567;-44
2022/02/04 07:57:24;;;;;;;;;;;-1.10;75.70;;;;;;5021780;28;93868;-44
2022/02/04 07:59:50;;;;;;;;;;;-1.10;75.80;;;;;;5021667;28;94769;-44
2022/02/04 08:02:15;;;;;;;;;;;-1.00;75.50;;;;;;5022218;28;92152;-44
2022/02/04 08:04:43;;;;;;;;;;;-1.10;75.80;;;;;;5022398;28;93743;-44
2022/02/04 08:07:13;;;;;;;;;;;-1.10;75.80;;;;;;5021777;28;94642;-45
2022/02/04 08:10:05;;;;;;;;;;;-1.10;75.80;;;;;;5022547;28;92142;-45
2022/02/04 08:12:49;;;;;;;;;;;-1.10;75.90;;;;;;5022294;28;93907;-45
2022/02/04 08:15:38;;;;;;;;;;;-1.10;76.00;;;;;;5022436;28;92381;-44
2022/02/04 08:18:34;;;;;;;;;;;-1.10;76.10;;;;;;5025033;28;92186;-45
2022/02/04 08:24:11;;;;;;;;;;;-1.20;76.20;;;;;;5020943;28;92837;-44
2022/02/04 08:30:24;;;;;;;;;;;-1.20;76.20;;;;;;4998844;28;92444;-47
2022/02/04 08:55:59;;;;;;;;;;;-1.30;77.00;;;;;;5021696;28;92390;-44
2022/02/04 08:58:31;;;;;;;;;;;-1.30;77.00;;;;;;5020999;28;94988;-44
2022/02/04 09:01:15;;;;;;;;;;;-1.30;77.10;;;;;;5020234;28;92140;-44
2022/02/04 09:06:13;;;;;;;;;;;-1.30;77.30;;;;;;5021437;28;92212;-44
2022/02/04 09:08:43;;;;;;;;;;;-1.30;77.40;;;;;;5021732;28;94005;-43
2022/02/04 09:11:16;;;;;;;;;;;-1.30;77.30;;;;;;5020720;28;94823;-44
2022/02/04 09:19:17;;;;;;;;;;;-1.30;77.50;;;;;;5018753;28;92770;-44
2022/02/04 09:24:08;;;;;;;;;;;-1.40;77.40;;;;;;5021456;28;92265;-44
2022/02/04 09:26:34;;;;;;;;;;;-1.40;77.50;;;;;;5023672;28;94622;-43
2022/02/04 09:29:00;;;;;;;;;;;-1.40;77.60;;;;;;5020672;28;93877;-43
2022/02/04 09:31:25;;;;;;;;;;;-1.40;77.70;;;;;;5020553;28;93791;-44
2022/02/04 09:33:51;;;;;;;;;;;-1.40;77.70;;;;;;5021501;28;91439;-44
2022/02/04 09:36:16;;;;;;;;;;;-1.40;77.70;;;;;;5021075;28;93671;-44
2022/02/04 09:38:42;;;;;;;;;;;-1.40;77.80;;;;;;5020260;28;94640;-43
2022/02/04 09:41:08;;;;;;;;;;;-1.30;77.80;;;;;;5019571;28;93301;-44
2022/02/04 09:43:34;;;;;;;;;;;-1.30;77.50;;;;;;5020742;28;94699;-44
2022/02/04 09:46:00;;;;;;;;;;;-1.40;77.90;;;;;;5020228;28;93833;-43
2022/02/04 09:48:26;;;;;;;;;;;-1.30;77.80;;;;;;5023671;28;92132;-43
2022/02/04 09:50:54;;;;;;;;;;;-1.20;77.70;;;;;;5020135;28;94875;-43
2022/02/04 10:10:09;;;;;;;;;;;-1.30;78.30;;;;;;5019137;28;92091;-43
2022/02/04 10:15:22;;;;;;;;;;;-1.20;78.30;;;;;;5020654;28;92131;-43
2022/02/04 10:17:56;;;;;;;;;;;-1.20;78.40;;;;;;5020315;28;93769;-43
2022/02/04 10:20:23;;;;;;;;;;;-1.20;78.30;;;;;;5019487;28;94807;-43
2022/02/04 10:22:49;;;;;;;;;;;-1.20;78.50;;;;;;5020057;28;92115;-44
2022/02/04 10:25:16;;;;;;;;;;;-1.20;78.70;;;;;;5020448;28;93918;-43
2022/02/04 10:27:46;;;;;;;;;;;-1.20;78.50;;;;;;5019473;28;94272;-43
2022/02/04 10:30:13;;;;;;;;;;;-1.20;78.60;;;;;;5020104;28;92169;-43
2022/02/04 10:32:45;;;;;;;;;;;-1.20;78.50;;;;;;5019353;28;93742;-43
2022/02/04 10:35:21;;;;;;;;;;;-1.20;78.60;;;;;;5022656;28;94210;-43
2022/02/04 10:38:04;;;;;;;;;;;-1.20;78.60;;;;;;5019868;28;92781;-43
2022/02/04 10:43:31;;;;;;;;;;;-1.10;78.30;;;;;;5020219;28;92195;-43
2022/02/04 10:46:09;;;;;;;;;;;-1.10;78.40;;;;;;5019883;28;93590;-43
2022/02/04 11:04:00;;;;;;;;;;;-1.00;78.50;;;;;;5018514;28;92009;-43
2022/02/04 11:06:48;;;;;;;;;;;-1.00;78.60;;;;;;5019629;28;92894;-43
2022/02/04 11:12:03;;;;;;;;;;;-1.00;78.40;;;;;;5017266;28;91871;-43
2022/02/04 11:36:21;;;;;;;;;;;-0.80;79.00;;;;;;5022253;28;92429;-44
2022/02/04 11:55:00;;;;;;;;;;;-0.70;79.00;;;;;;5022037;28;92080;-43
2022/02/04 11:57:27;;;;;;;;;;;-0.70;79.00;;;;;;5022377;28;94013;-43
2022/02/04 11:59:53;;;;;;;;;;;-0.70;78.90;;;;;;5021952;28;94525;-44
2022/02/04 12:02:31;;;;;;;;;;;-0.60;78.90;;;;;;5022496;28;92144;-45
2022/02/04 12:05:06;;;;;;;;;;;-0.60;78.90;;;;;;5022498;28;93869;-43
2022/02/04 12:07:41;;;;;;;;;;;-0.60;78.90;;;;;;5024800;28;94450;-43
2022/02/04 12:10:13;;;;;;;;;;;-0.60;78.80;;;;;;5022985;28;93934;-43
2022/02/04 12:12:54;;;;;;;;;;;-0.60;79.00;;;;;;5021727;28;94308;-44
2022/02/04 12:15:26;;;;;;;;;;;-0.50;78.90;;;;;;5022135;28;92153;-44
2022/02/04 12:17:51;;;;;;;;;;;-0.50;78.80;;;;;;5021373;28;93894;-44
2022/02/04 12:20:17;;;;;;;;;;;-0.50;79.20;;;;;;5021258;28;94510;-44
2022/02/04 12:22:50;;;;;;;;;;;-0.50;79.20;;;;;;5021783;28;91946;-44
2022/02/04 12:25:35;;;;;;;;;;;-0.50;79.00;;;;;;5022002;28;93727;-44
2022/02/04 12:28:01;;;;;;;;;;;-0.50;79.00;;;;;;5023600;27;94877;-44
2022/02/04 12:30:34;;;;;;;;;;;-0.40;79.10;;;;;;5024997;28;92136;-43
2022/02/04 12:33:00;;;;;;;;;;;-0.40;79.20;;;;;;5021015;28;94393;-43
2022/02/04 12:35:28;;;;;;;;;;;-0.40;79.60;;;;;;5022007;28;91451;-43
2022/02/04 12:37:54;;;;;;;;;;;-0.40;79.20;;;;;;5021824;28;92783;-43
2022/02/04 12:40:20;;;;;;;;;;;-0.40;79.20;;;;;;5021310;28;94542;-44
2022/02/04 12:42:46;;;;;;;;;;;-0.40;79.40;;;;;;5020926;28;93094;-44
2022/02/04 12:45:13;;;;;;;;;;;-0.40;79.20;;;;;;5021695;28;94913;-44
2022/02/04 12:47:39;;;;;;;;;;;-0.30;79.20;;;;;;5021056;28;94479;-44
2022/02/04 12:50:07;;;;;;;;;;;-0.40;79.50;;;;;;5021677;28;92143;-44
2022/02/04 12:52:44;;;;;;;;;;;-0.30;79.60;;;;;;5024222;28;93650;-44
2022/02/04 12:55:20;;;;;;;;;;;-0.30;79.20;;;;;;5021817;28;92226;-44
2022/02/04 13:08:39;;;;;;;;;;;-0.30;80.00;;;;;;5019693;28;93222;-43
2022/02/04 13:11:13;;;;;;;;;;;-0.30;80.20;;;;;;5021608;28;92148;-43
2022/02/04 13:13:45;;;;;;;;;;;-0.20;79.90;;;;;;5023991;28;92832;-43
2022/02/04 13:16:20;;;;;;;;;;;-0.20;80.10;;;;;;5021287;28;91978;-44
2022/02/04 13:18:46;;;;;;;;;;;-0.20;80.20;;;;;;5021432;28;92241;-43
2022/02/04 13:21:12;;;;;;;;;;;-0.20;80.20;;;;;;5020464;28;94346;-45
2022/02/04 13:23:37;;;;;;;;;;;-0.20;80.30;;;;;;5021131;28;92151;-44
2022/02/04 13:26:05;;;;;;;;;;;-0.20;80.20;;;;;;5021504;28;94134;-46
2022/02/04 13:28:36;;;;;;;;;;;-0.20;80.20;;;;;;5020417;28;94294;-45
2022/02/04 13:31:03;;;;;;;;;;;-0.10;80.30;;;;;;5020833;28;92252;-44
2022/02/04 13:33:33;;;;;;;;;;;-0.10;80.30;;;;;;5020156;28;93291;-45
2022/02/04 13:36:02;;;;;;;;;;;-0.10;80.20;;;;;;5023647;28;94909;-44
2022/02/04 13:38:53;;;;;;;;;;;-0.10;80.20;;;;;;5020920;28;93894;-44
2022/02/04 13:41:33;;;;;;;;;;;-0.10;80.20;;;;;;5019861;28;94251;-45
2022/02/04 13:46:52;;;;;;;;;;;0.00;80.20;;;;;;5020252;28;92161;-44
2022/02/04 13:49:39;;;;;;;;;;;0.00;80.50;;;;;;5020170;28;94326;-44
2022/02/04 14:00:46;;;;;;;;;;;0.00;80.60;;;;;;5021831;28;93130;-44
2022/02/04 14:02:53;;;;;;;;;;;0.00;80.50;;;;;;5018762;28;93955;-44
2022/02/04 14:05:34;;;;;;;;;;;0.00;80.40;;;;;;5020095;28;92125;-44
2022/02/04 14:08:08;;;;;;;;;;;0.10;80.50;;;;;;5019151;28;94850;-44
2022/02/04 14:10:39;;;;;;;;;;;0.10;80.10;;;;;;5020017;28;94300;-44
2022/02/04 14:13:06;;;;;;;;;;;0.10;80.50;;;;;;5020289;28;92089;-46
2022/02/04 14:15:33;;;;;;;;;;;0.10;80.60;;;;;;5020172;28;93997;-44
2022/02/04 14:18:04;;;;;;;;;;;0.10;80.80;;;;;;5020174;28;93126;-45
2022/02/04 14:20:30;;;;;;;;;;;0.10;80.70;;;;;;5020434;28;92015;-43
2022/02/04 14:22:56;;;;;;;;;;;0.10;80.80;;;;;;5022714;28;93907;-43
2022/02/04 14:25:21;;;;;;;;;;;0.10;80.90;;;;;;5019375;28;93136;-45
2022/02/04 14:27:51;;;;;;;;;;;0.10;80.90;;;;;;5019813;28;94900;-43
2022/02/04 14:30:22;;;;;;;;;;;0.10;81.00;;;;;;5019766;28;95427;-43
2022/02/04 14:32:56;;;;;;;;;;;0.10;81.00;;;;;;5019865;28;91942;-45
2022/02/04 15:04:05;;;;;;;;;;;0.30;81.00;;;;;;5020798;28;92324;-45
2022/02/04 15:06:36;;;;;;;;;;;0.30;81.00;;;;;;5022740;28;94428;-43
2022/02/04 15:09:07;;;;;;;;;;;0.30;80.90;;;;;;5026758;28;91120;-44
2022/02/04 15:11:35;;;;;;;;;;;0.30;81.10;;;;;;5022586;28;94998;-43
2022/02/04 15:14:02;;;;;;;;;;;0.30;80.90;;;;;;5022700;28;92192;-45
2022/02/04 15:16:27;;;;;;;;;;;0.40;80.90;;;;;;5022353;28;94036;-45
2022/02/04 15:18:53;;;;;;;;;;;0.40;80.90;;;;;;5022393;28;94615;-44
2022/02/04 15:21:20;;;;;;;;;;;0.40;81.00;;;;;;5022916;28;92109;-45
2022/02/04 15:23:49;;;;;;;;;;;0.40;80.90;;;;;;5022886;28;93859;-46
2022/02/04 15:26:15;;;;;;;;;;;0.40;80.80;;;;;;5022176;28;94372;-44
2022/02/04 15:28:57;;;;;;;;;;;0.40;80.90;;;;;;5025630;28;92260;-43
2022/02/04 15:33:50;;;;;;;;;;;0.50;80.80;;;;;;5023313;28;91361;-43
2022/02/04 15:36:27;;;;;;;;;;;0.50;80.90;;;;;;5022578;28;93083;-44
2022/02/04 15:38:52;;;;;;;;;;;0.50;81.00;;;;;;5022255;28;94516;-45
2022/02/04 15:41:20;;;;;;;;;;;0.50;81.00;;;;;;5021718;28;93128;-44
2022/02/04 15:43:50;;;;;;;;;;;0.50;81.00;;;;;;5022713;28;94958;-43
2022/02/04 15:49:06;;;;;;;;;;;0.50;80.70;;;;;;5022768;28;92137;-43
2022/02/04 15:54:36;;;;;;;;;;;0.60;79.90;;;;;;5020071;28;91846;-43
2022/02/04 16:06:43;;;;;;;;;;;0.60;79.80;;;;;;5019020;28;93830;-43
2022/02/04 16:09:09;;;;;;;;;;;0.60;79.90;;;;;;5022322;28;92202;-43
2022/02/04 16:12:02;;;;;;;;;;;0.60;80.10;;;;;;5021473;28;93972;-43
2022/02/04 16:14:34;;;;;;;;;;;0.60;80.00;;;;;;5024371;28;94654;-43
2022/02/04 16:17:18;;;;;;;;;;;0.60;79.60;;;;;;5022226;28;93965;-42
2022/02/04 16:19:47;;;;;;;;;;;0.60;79.30;;;;;;5021656;28;93545;-42
2022/02/04 16:22:43;;;;;;;;;;;0.60;79.30;;;;;;5022060;28;92147;-43
2022/02/04 16:25:30;;;;;;;;;;;0.60;79.40;;;;;;5021760;28;92953;-43
2022/02/04 16:30:41;;;;;;;;;;;0.60;79.60;;;;;;5021304;28;92108;-42
2022/02/04 16:33:06;;;;;;;;;;;0.60;79.50;;;;;;5021176;28;94120;-42
2022/02/04 16:35:32;;;;;;;;;;;0.60;79.50;;;;;;5021225;28;94855;-42
2022/02/04 16:38:04;;;;;;;;;;;0.60;79.40;;;;;;5024838;28;92032;-44
2022/02/04 16:40:34;;;;;;;;;;;0.60;79.40;;;;;;5021369;28;94505;-43
2022/02/04 16:43:00;;;;;;;;;;;0.70;79.40;;;;;;5021334;28;92132;-42
2022/02/04 16:45:26;;;;;;;;;;;0.70;79.40;;;;;;5021691;28;92824;-42
2022/02/04 16:47:52;;;;;;;;;;;0.70;79.50;;;;;;5020851;28;94323;-43
2022/02/04 16:50:21;;;;;;;;;;;0.70;79.60;;;;;;5022341;28;91417;-43
2022/02/04 16:52:48;;;;;;;;;;;0.70;79.50;;;;;;5021450;28;93218;-44
2022/02/04 16:55:13;;;;;;;;;;;0.70;79.40;;;;;;5020862;28;94550;-44
2022/02/04 16:57:40;;;;;;;;;;;0.70;79.50;;;;;;5020865;28;93193;-43
2022/02/04 17:00:20;;;;;;;;;;;0.70;79.50;;;;;;5024017;28;94639;-43
2022/02/04 17:02:45;;;;;;;;;;;0.70;79.50;;;;;;5021388;28;92067;-41
2022/02/04 17:05:12;;;;;;;;;;;0.80;79.50;;;;;;5021209;28;93477;-42
2022/02/04 17:07:39;;;;;;;;;;;0.80;79.50;;;;;;5020874;28;94454;-44
2022/02/04 17:10:07;;;;;;;;;;;0.80;79.40;;;;;;5021389;28;92120;-43
2022/02/04 17:12:41;;;;;;;;;;;0.80;79.30;;;;;;5021233;28;93781;-42
2022/02/04 17:15:07;;;;;;;;;;;0.80;79.30;;;;;;5021021;28;93364;-42
2022/02/04 17:17:33;;;;;;;;;;;0.80;79.20;;;;;;5021025;28;91986;-42
2022/02/04 17:20:11;;;;;;;;;;;0.80;79.20;;;;;;5023713;28;92838;-43
2022/02/04 17:22:38;;;;;;;;;;;0.80;79.10;;;;;;5019327;28;92972;-42
2022/02/04 17:25:08;;;;;;;;;;;0.80;79.10;;;;;;5021009;28;94681;-43
2022/02/04 17:27:34;;;;;;;;;;;0.90;79.10;;;;;;5020367;28;95664;-43
2022/02/04 17:30:00;;;;;;;;;;;0.90;79.00;;;;;;5020776;28;92217;-43
2022/02/04 17:32:26;;;;;;;;;;;0.90;79.00;;;;;;5020890;28;93895;-44
2022/02/04 17:34:52;;;;;;;;;;;0.90;79.00;;;;;;5020187;28;94591;-43
2022/02/04 17:37:18;;;;;;;;;;;0.90;79.00;;;;;;5020916;28;92238;-42
2022/02/04 17:39:44;;;;;;;;;;;0.90;79.00;;;;;;5021693;28;92347;-45
2022/02/04 17:42:09;;;;;;;;;;;0.90;78.80;;;;;;5022434;28;94405;-44
2022/02/04 17:44:41;;;;;;;;;;;0.90;78.90;;;;;;5046242;28;79994;-43
2022/02/04 17:47:07;;;;;;;;;;;1.00;78.90;;;;;;5045039;28;80228;-43
2022/02/04 17:49:46;;;;;;;;;;;0.90;78.90;;;;;;5044755;27;82139;-43
2022/02/04 17:52:22;;;;;;;;;;;0.90;78.60;;;;;;5044698;28;82107;-44
2022/02/04 17:55:02;;;;;;;;;;;0.90;78.60;;;;;;5044611;27;80094;-45
2022/02/04 17:57:41;;;;;;;;;;;1.00;78.60;;;;;;5044594;28;82236;-44
2022/02/04 18:07:57;;;;;;;;;;;1.00;78.60;;;;;;5042535;27;80048;-43
2022/02/04 18:10:22;;;;;;;;;;;1.00;78.70;;;;;;5044326;27;81892;-45
2022/02/04 18:12:48;;;;;;;;;;;1.00;78.80;;;;;;5044153;27;82602;-43
2022/02/04 18:15:14;;;;;;;;;;;1.00;78.80;;;;;;5044621;27;80321;-43
2022/02/04 18:17:40;;;;;;;;;;;1.00;78.70;;;;;;5044310;28;82047;-45
2022/02/04 18:20:06;;;;;;;;;;;1.00;78.80;;;;;;5043810;28;83048;-46
2022/02/04 18:22:32;;;;;;;;;;;1.00;78.60;;;;;;5044108;27;80184;-42
2022/02/04 18:24:57;;;;;;;;;;;1.00;78.50;;;;;;5044437;27;81211;-43
2022/02/04 18:27:23;;;;;;;;;;;1.00;78.60;;;;;;5046509;28;82614;-43
2022/02/04 18:29:54;;;;;;;;;;;1.00;78.70;;;;;;5044041;28;81891;-43
2022/02/04 18:32:22;;;;;;;;;;;1.00;78.70;;;;;;5043847;27;82992;-42
2022/02/04 18:34:48;;;;;;;;;;;1.00;78.80;;;;;;5044310;27;80399;-42
2022/02/04 18:37:14;;;;;;;;;;;1.10;78.80;;;;;;5044090;28;81355;-42
2022/02/04 18:40:09;;;;;;;;;;;1.10;78.80;;;;;;5043648;28;82781;-45
2022/02/04 18:43:08;;;;;;;;;;;1.10;78.90;;;;;;5043270;28;80229;-44
2022/02/04 18:45:32;;;;;;;;;;;1.10;78.80;;;;;;5043528;28;80395;-44
2022/02/04 18:48:02;;;;;;;;;;;1.10;78.80;;;;;;5043512;27;82652;-45
2022/02/04 18:50:46;;;;;;;;;;;1.00;78.60;;;;;;5046557;27;80355;-44
2022/02/04 18:53:32;;;;;;;;;;;1.10;78.70;;;;;;5043681;27;82052;-44
2022/02/04 18:58:24;;;;;;;;;;;1.10;78.70;;;;;;5030686;28;80767;-43
2022/02/04 19:00:53;;;;;;;;;;;1.10;78.60;;;;;;5030232;28;83080;-42
2022/02/04 19:03:31;;;;;;;;;;;1.10;78.60;;;;;;5030040;28;80365;-42
2022/02/04 19:09:14;;;;;;;;;;;1.10;78.90;;;;;;5027905;28;80565;-43
2022/02/04 19:11:37;;;;;;;;;;;1.10;78.60;;;;;;5027778;28;80244;-43
2022/02/04 19:16:59;;;;;;;;;;;1.10;78.70;;;;;;5009776;28;80358;-43
2022/02/04 19:19:42;;;;;;;;;;;1.10;78.60;;;;;;5029933;28;82155;-42
2022/02/04 19:24:43;;;;;;;;;;;1.10;78.70;;;;;;5029655;28;80336;-43
2022/02/04 19:27:08;;;;;;;;;;;1.10;78.70;;;;;;5030005;28;82099;-43
2022/02/04 19:29:37;;;;;;;;;;;1.10;79.00;;;;;;5030109;28;80587;-42
2022/02/04 19:32:04;;;;;;;;;;;1.10;78.70;;;;;;5029652;28;80385;-42
2022/02/04 19:34:30;;;;;;;;;;;1.10;78.80;;;;;;5029665;28;82021;-43
2022/02/04 19:36:56;;;;;;;;;;;1.10;78.70;;;;;;5032439;28;81312;-42
2022/02/04 19:39:22;;;;;;;;;;;1.10;78.70;;;;;;5029412;28;81871;-43
2022/02/04 19:42:00;;;;;;;;;;;1.10;78.60;;;;;;5029370;28;82143;-43
2022/02/04 19:44:27;;;;;;;;;;;1.10;78.60;;;;;;5029424;28;80235;-43
2022/02/04 19:46:58;;;;;;;;;;;1.10;78.70;;;;;;5029435;28;82188;-42
2022/02/04 19:49:27;;;;;;;;;;;1.10;78.60;;;;;;5029482;28;81813;-43
2022/02/04 19:52:03;;;;;;;;;;;1.20;78.50;;;;;;5029133;28;80284;-44
2022/02/04 20:26:55;;;;;;;;;;;1.20;78.50;;;;;;5029081;28;80153;-43
2022/02/04 20:29:20;;;;;;;;;;;1.20;78.30;;;;;;5029021;28;81727;-44
2022/02/04 20:31:46;;;;;;;;;;;1.20;78.20;;;;;;5028535;28;84047;-45
2022/02/04 20:34:11;;;;;;;;;;;1.20;78.40;;;;;;5028807;28;80211;-43
2022/02/04 20:36:37;;;;;;;;;;;1.20;78.40;;;;;;5028662;28;82329;-44
2022/02/04 20:39:06;;;;;;;;;;;1.20;78.50;;;;;;5028650;28;82227;-44
2022/02/04 20:41:32;;;;;;;;;;;1.20;78.30;;;;;;5028576;28;80154;-45
2022/02/04 20:43:57;;;;;;;;;;;1.20;78.40;;;;;;5030696;28;80966;-44
2022/02/04 20:46:23;;;;;;;;;;;1.20;78.30;;;;;;5028388;28;80430;-44
2022/02/04 20:48:48;;;;;;;;;;;1.20;78.10;;;;;;5028481;28;82171;-45
2022/02/04 20:51:14;;;;;;;;;;;1.20;78.20;;;;;;5028308;28;81718;-44
2022/02/04 20:53:39;;;;;;;;;;;1.20;78.10;;;;;;5028452;28;80406;-44
2022/02/04 20:56:05;;;;;;;;;;;1.20;78.30;;;;;;5028525;28;81012;-44
2022/02/04 20:58:31;;;;;;;;;;;1.20;78.10;;;;;;5028467;28;82928;-44
2022/02/04 21:00:57;;;;;;;;;;;1.20;78.10;;;;;;5028253;28;80224;-44
2022/02/04 21:03:24;;;;;;;;;;;1.20;78.20;;;;;;5028232;28;82556;-45
2022/02/04 21:08:35;;;;;;;;;;;1.20;78.00;;;;;;5028613;28;80581;-44
2022/02/04 21:13:49;;;;;;;;;;;1.20;78.10;;;;;;5025905;28;80023;-46
2022/02/04 21:16:16;;;;;;;;;;;1.20;78.10;;;;;;5028274;28;81268;-46
2022/02/04 21:18:42;;;;;;;;;;;1.20;78.00;;;;;;5027743;28;83183;-43
2022/02/04 21:21:07;;;;;;;;;;;1.20;78.00;;;;;;5028308;28;80263;-44
2022/02/04 21:23:33;;;;;;;;;;;1.20;77.90;;;;;;5028334;28;80644;-44
2022/02/04 21:26:01;;;;;;;;;;;1.20;78.00;;;;;;5027843;28;83069;-46
2022/02/04 21:28:28;;;;;;;;;;;1.20;78.00;;;;;;5030565;28;80269;-43
2022/02/04 21:30:54;;;;;;;;;;;1.20;77.90;;;;;;5027832;28;82978;-46
2022/02/04 21:33:37;;;;;;;;;;;1.20;77.90;;;;;;5028079;28;80344;-45
2022/02/04 21:38:48;;;;;;;;;;;1.20;77.90;;;;;;5025269;28;80415;-43
2022/02/04 21:41:14;;;;;;;;;;;1.20;77.80;;;;;;5027915;28;80427;-44
2022/02/04 21:43:41;;;;;;;;;;;1.20;77.80;;;;;;5026987;28;82666;-45
2022/02/04 21:46:08;;;;;;;;;;;1.20;77.80;;;;;;5027876;28;82605;-43
2022/02/04 21:48:36;;;;;;;;;;;1.20;77.80;;;;;;5027870;28;80352;-44
2022/02/04 21:51:01;;;;;;;;;;;1.20;77.80;;;;;;5030032;28;81953;-43